createdAt,value
2018-12-06T00:01:58.713Z,66.33
2018-12-06T00:04:27.877Z,65.60
2018-12-06T00:06:56.950Z,69.75
2018-12-06T00:09:26.108Z,57.50
2018-12-06T00:11:55.253Z,69.05
2018-12-06T00:14:24.284Z,59.77
2018-12-06T00:16:56.960Z,49.93
2018-12-06T00:19:26.014Z,54.42
2018-12-06T00:21:55.071Z,50.00
2018-12-06T00:24:24.304Z,49.48
2018-12-06T00:26:53.714Z,50.38
2018-12-06T00:29:22.794Z,49.55
2018-12-06T00:31:51.924Z,47.55
2018-12-06T00:34:21.049Z,52.65
2018-12-06T00:36:50.107Z,61.77
2018-12-06T00:39:19.192Z,58.13
2018-12-06T00:41:48.436Z,50.88
2018-12-06T00:44:17.541Z,58.02
2018-12-06T00:46:46.637Z,53.48
2018-12-06T00:49:15.670Z,61.53
2018-12-06T00:51:44.838Z,58.80
2018-12-06T00:54:13.998Z,56.65
2018-12-06T00:56:43.014Z,48.73
2018-12-06T00:59:12.115Z,55.78
2018-12-06T01:01:41.658Z,64.32
2018-12-06T01:04:10.829Z,66.57
2018-12-06T01:06:40.304Z,65.25
2018-12-06T01:09:09.494Z,66.57
2018-12-06T01:11:38.682Z,64.77
2018-12-06T01:14:07.727Z,71.55
2018-12-06T01:16:36.794Z,80.12
2018-12-06T01:19:05.868Z,67.50
2018-12-06T01:21:34.876Z,67.35
2018-12-06T01:24:03.951Z,69.32
2018-12-06T01:26:33.169Z,79.72
2018-12-06T01:29:02.223Z,69.60
2018-12-06T01:31:31.376Z,68.20
2018-12-06T01:34:01.172Z,60.50
2018-12-06T01:36:30.144Z,74.00
2018-12-06T01:38:59.231Z,72.65
2018-12-06T01:41:28.233Z,67.17
2018-12-06T01:43:57.237Z,71.85
2018-12-06T01:46:26.261Z,71.47
2018-12-06T01:48:55.250Z,65.47
2018-12-06T01:51:24.237Z,73.85
2018-12-06T01:53:53.272Z,64.32
2018-12-06T01:56:22.277Z,75.97
2018-12-06T01:58:51.261Z,78.12
2018-12-06T02:01:20.754Z,77.90
2018-12-06T02:03:49.771Z,75.15
2018-12-06T02:06:18.765Z,71.57
2018-12-06T02:08:47.841Z,71.35
2018-12-06T02:11:16.884Z,75.85
2018-12-06T02:13:45.937Z,70.45
2018-12-06T02:16:15.015Z,78.50
2018-12-06T02:18:44.006Z,71.02
2018-12-06T02:21:12.996Z,67.25
2018-12-06T02:23:42.059Z,71.15
2018-12-06T02:26:11.125Z,68.97
2018-12-06T02:28:40.351Z,69.12
2018-12-06T02:31:09.482Z,69.40
2018-12-06T02:33:38.474Z,70.40
2018-12-06T02:36:07.525Z,63.78
2018-12-06T02:38:36.577Z,53.23
2018-12-06T02:41:05.631Z,67.08
2018-12-06T02:43:34.812Z,72.60
2018-12-06T02:46:03.903Z,70.75
2018-12-06T02:48:32.944Z,54.65
2018-12-06T02:51:01.948Z,74.50
2018-12-06T02:53:31.558Z,54.40
2018-12-06T02:56:00.660Z,61.85
2018-12-06T02:58:30.272Z,66.28
2018-12-06T03:00:59.408Z,54.05
2018-12-06T03:03:28.525Z,52.15
2018-12-06T03:05:57.534Z,61.10
2018-12-06T03:08:26.633Z,55.50
2018-12-06T03:10:55.996Z,63.30
2018-12-06T03:13:25.590Z,66.05
2018-12-06T03:15:56.076Z,47.40
2018-12-06T03:18:26.182Z,55.30
2018-12-06T03:20:55.872Z,54.60
2018-12-06T03:23:25.664Z,57.17
2018-12-06T03:25:54.686Z,59.80
2018-12-06T03:28:23.767Z,55.35
2018-12-06T03:30:53.410Z,50.00
2018-12-06T03:33:22.431Z,46.60
2018-12-06T03:35:52.245Z,55.55
2018-12-06T03:38:21.769Z,48.38
2018-12-06T03:40:51.252Z,52.33
2018-12-06T03:43:20.328Z,73.33
2018-12-06T03:45:49.701Z,51.15
2018-12-06T03:48:18.708Z,53.40
2018-12-06T03:50:47.830Z,51.83
2018-12-06T03:53:16.837Z,56.30
2018-12-06T03:55:45.864Z,52.95
2018-12-06T03:58:14.923Z,47.10
2018-12-06T04:00:44.078Z,47.53
2018-12-06T04:03:13.227Z,48.92
2018-12-06T04:05:42.309Z,44.80
2018-12-06T04:08:11.305Z,49.75
2018-12-06T04:10:40.397Z,45.35
2018-12-06T04:13:09.526Z,48.85
2018-12-06T04:15:38.857Z,41.70
2018-12-06T04:18:07.886Z,40.70
2018-12-06T04:20:36.944Z,42.50
2018-12-06T04:23:05.993Z,44.30
2018-12-06T04:25:34.976Z,34.35
2018-12-06T04:28:04.106Z,42.98
2018-12-06T04:30:33.754Z,43.38
2018-12-06T04:33:02.777Z,43.95
2018-12-06T04:35:32.057Z,36.03
2018-12-06T04:38:01.100Z,33.30
2018-12-06T04:40:30.270Z,39.67
2018-12-06T04:42:59.792Z,34.83
2018-12-06T04:45:28.802Z,37.00
2018-12-06T04:47:57.786Z,30.97
2018-12-06T04:50:26.848Z,29.20
2018-12-06T04:52:55.837Z,41.05
2018-12-06T04:55:24.828Z,30.30
2018-12-06T04:57:53.874Z,34.08
2018-12-06T05:00:22.822Z,31.30
2018-12-06T05:02:51.945Z,27.25
2018-12-06T05:05:20.968Z,34.35
2018-12-06T05:07:49.945Z,29.55
2018-12-06T05:10:19.001Z,33.13
2018-12-06T05:12:48.939Z,30.30
2018-12-06T05:15:17.954Z,36.45
2018-12-06T05:17:47.369Z,31.70
2018-12-06T05:20:16.470Z,29.50
2018-12-06T05:22:45.456Z,31.35
2018-12-06T05:25:14.432Z,30.43
2018-12-06T05:27:43.528Z,27.80
2018-12-06T05:30:12.580Z,26.30
2018-12-06T05:32:56.442Z,32.42
2018-12-06T05:35:25.470Z,29.55
2018-12-06T05:37:54.448Z,24.05
2018-12-06T05:40:23.876Z,25.52
2018-12-06T05:42:55.180Z,25.15
2018-12-06T05:45:24.769Z,30.15
2018-12-06T05:47:53.791Z,33.13
2018-12-06T05:50:22.805Z,25.10
2018-12-06T05:52:51.859Z,30.70
2018-12-06T05:55:20.880Z,23.27
2018-12-06T05:57:50.413Z,31.37
2018-12-06T06:00:19.530Z,25.68
2018-12-06T06:02:48.553Z,27.00
2018-12-06T06:05:17.603Z,25.00
2018-12-06T06:07:46.717Z,28.92
2018-12-06T06:10:16.347Z,26.10
2018-12-06T06:12:45.413Z,24.75
2018-12-06T06:15:14.586Z,27.13
2018-12-06T06:17:43.629Z,22.40
2018-12-06T06:20:12.634Z,21.12
2018-12-06T06:22:41.724Z,22.40
2018-12-06T06:25:10.773Z,25.85
2018-12-06T06:27:39.792Z,25.32
2018-12-06T06:30:09.644Z,19.42
2018-12-06T06:32:38.693Z,22.58
2018-12-06T06:35:07.783Z,22.87
2018-12-06T06:37:37.275Z,24.55
2018-12-06T06:40:06.885Z,27.30
2018-12-06T06:42:36.132Z,24.47
2018-12-06T06:45:05.806Z,32.23
2018-12-06T06:47:35.320Z,26.80
2018-12-06T06:50:04.523Z,22.22
2018-12-06T06:52:33.704Z,28.98
2018-12-06T06:55:03.256Z,25.05
2018-12-06T06:57:32.271Z,26.25
2018-12-06T07:00:01.404Z,30.32
2018-12-06T07:02:30.450Z,34.40
2018-12-06T07:04:59.542Z,27.60
2018-12-06T07:07:28.625Z,31.48
2018-12-06T07:09:57.669Z,29.52
2018-12-06T07:12:26.857Z,23.47
2018-12-06T07:14:55.931Z,28.47
2018-12-06T07:17:24.983Z,29.30
2018-12-06T07:19:53.998Z,24.98
2018-12-06T07:22:23.120Z,22.02
2018-12-06T07:24:52.624Z,27.70
2018-12-06T07:27:21.617Z,23.30
2018-12-06T07:29:50.683Z,33.02
2018-12-06T07:32:19.674Z,28.40
2018-12-06T07:34:48.681Z,34.60
2018-12-06T07:37:18.202Z,25.27
2018-12-06T07:39:47.255Z,40.55
2018-12-06T07:42:16.225Z,39.35
2018-12-06T07:44:45.193Z,36.08
2018-12-06T07:47:14.148Z,30.92
2018-12-06T07:49:43.118Z,30.70
2018-12-06T07:52:12.066Z,28.67
2018-12-06T07:54:40.978Z,26.52
2018-12-06T07:57:09.874Z,35.65
2018-12-06T07:59:38.850Z,30.68
2018-12-06T08:02:07.893Z,23.22
2018-12-06T08:04:36.865Z,35.90
2018-12-06T08:07:05.990Z,28.87
2018-12-06T08:09:34.983Z,26.20
2018-12-06T08:12:04.043Z,27.95
2018-12-06T08:14:33.266Z,29.82
2018-12-06T08:17:02.767Z,33.95
2018-12-06T08:19:31.705Z,29.37
2018-12-06T08:22:00.666Z,26.82
2018-12-06T08:24:29.588Z,28.12
2018-12-06T08:26:58.507Z,26.48
2018-12-06T08:29:27.507Z,31.85
2018-12-06T08:31:56.521Z,24.23
2018-12-06T08:34:26.162Z,24.40
2018-12-06T08:36:55.675Z,26.57
2018-12-06T08:39:24.639Z,30.72
2018-12-06T08:41:53.627Z,22.65
2018-12-06T08:44:22.718Z,29.60
2018-12-06T08:46:51.644Z,30.43
2018-12-06T08:49:20.597Z,22.98
2018-12-06T08:51:49.634Z,22.32
2018-12-06T08:54:18.648Z,23.92
2018-12-06T08:56:47.616Z,19.50
2018-12-06T08:59:16.658Z,29.48
2018-12-06T09:01:45.667Z,27.45
2018-12-06T09:04:14.692Z,26.80
2018-12-06T09:06:44.441Z,21.50
2018-12-06T09:09:14.316Z,24.32
2018-12-06T09:11:43.304Z,25.27
2018-12-06T09:14:12.282Z,24.82
2018-12-06T09:16:41.205Z,29.95
2018-12-06T09:19:10.217Z,22.40
2018-12-06T09:21:39.268Z,26.30
2018-12-06T09:24:08.260Z,34.92
2018-12-06T09:26:37.291Z,25.97
2018-12-06T09:29:06.502Z,23.65
2018-12-06T09:31:35.545Z,34.70
2018-12-06T09:34:06.697Z,30.97
2018-12-06T09:36:36.193Z,19.65
2018-12-06T09:39:08.906Z,31.15
2018-12-06T09:41:38.072Z,25.77
2018-12-06T09:44:07.081Z,26.73
2018-12-06T09:46:36.110Z,30.77
2018-12-06T09:49:05.912Z,27.75
2018-12-06T09:51:34.926Z,21.05
2018-12-06T09:54:04.089Z,20.35
2018-12-06T09:56:33.115Z,30.95
2018-12-06T09:59:02.130Z,22.50
2018-12-06T10:01:31.178Z,25.45
2018-12-06T10:04:00.797Z,24.25
2018-12-06T10:06:29.815Z,20.50
2018-12-06T10:08:58.910Z,17.75
2018-12-06T10:11:27.926Z,17.95
2018-12-06T10:13:56.945Z,21.42
2018-12-06T10:16:26.079Z,18.75
2018-12-06T10:18:55.054Z,18.42
2018-12-06T10:21:24.050Z,23.77
2018-12-06T10:23:53.147Z,18.45
2018-12-06T10:26:22.109Z,12.75
2018-12-06T10:28:51.062Z,17.80
2018-12-06T10:31:20.067Z,17.50
2018-12-06T10:33:49.107Z,18.62
2018-12-06T10:36:18.110Z,17.80
2018-12-06T10:38:47.143Z,17.80
2018-12-06T10:41:16.162Z,17.25
2018-12-06T10:43:45.379Z,22.32
2018-12-06T10:46:14.478Z,22.58
2018-12-06T10:48:43.510Z,18.05
2018-12-06T10:51:53.071Z,22.22
2018-12-06T10:54:22.403Z,20.90
2018-12-06T10:56:51.416Z,18.85
2018-12-06T10:59:20.431Z,20.25
2018-12-06T11:01:54.526Z,20.43
2018-12-06T11:04:27.709Z,23.32
2018-12-06T11:06:56.974Z,22.75
2018-12-06T11:09:26.032Z,19.15
2018-12-06T11:11:55.211Z,30.48
2018-12-06T11:14:24.200Z,19.35
2018-12-06T11:16:53.262Z,20.35
2018-12-06T11:19:22.282Z,16.45
2018-12-06T11:21:51.290Z,17.25
2018-12-06T11:24:20.329Z,18.77
2018-12-06T11:26:49.381Z,15.45
2018-12-06T11:29:18.378Z,19.48
2018-12-06T11:31:47.362Z,19.80
2018-12-06T11:34:16.459Z,20.40
2018-12-06T11:36:45.444Z,21.35
2018-12-06T11:39:14.414Z,26.02
2018-12-06T11:41:43.425Z,23.90
2018-12-06T11:44:12.358Z,26.85
2018-12-06T11:46:41.420Z,20.88
2018-12-06T11:49:10.434Z,17.25
2018-12-06T11:51:39.405Z,15.28
2018-12-06T11:54:08.467Z,17.65
2018-12-06T11:56:37.542Z,20.40
2018-12-06T11:59:07.478Z,22.80
2018-12-06T12:01:37.548Z,18.75
2018-12-06T12:04:07.232Z,17.60
2018-12-06T12:06:36.185Z,19.00
2018-12-06T12:09:08.324Z,23.02
2018-12-06T12:11:37.340Z,20.32
2018-12-06T12:14:06.334Z,15.18
2018-12-06T12:16:35.280Z,17.23
2018-12-06T12:19:04.264Z,15.80
2018-12-06T12:21:33.203Z,16.75
2018-12-06T12:24:02.204Z,16.65
2018-12-06T12:26:31.209Z,18.48
2018-12-06T12:29:00.414Z,16.55
2018-12-06T12:31:29.641Z,17.75
2018-12-06T12:33:58.641Z,18.32
2018-12-06T12:36:27.634Z,18.45
2018-12-06T12:38:56.690Z,14.18
2018-12-06T12:41:25.665Z,13.80
2018-12-06T12:43:54.642Z,17.52
2018-12-06T12:46:25.716Z,17.85
2018-12-06T12:48:54.677Z,19.67
2018-12-06T12:51:23.718Z,18.20
2018-12-06T12:53:52.716Z,16.40
2018-12-06T12:56:21.766Z,20.32
2018-12-06T12:58:50.775Z,18.55
2018-12-06T13:01:19.769Z,13.10
2018-12-06T13:03:48.794Z,15.95
2018-12-06T13:06:17.845Z,21.65
2018-12-06T13:08:46.884Z,16.87
2018-12-06T13:11:15.861Z,11.70
2018-12-06T13:13:44.794Z,12.88
2018-12-06T13:16:13.809Z,16.80
2018-12-06T13:18:42.744Z,13.40
2018-12-06T13:21:11.732Z,19.42
2018-12-06T13:23:40.813Z,15.28
2018-12-06T13:26:09.864Z,9.95
2018-12-06T13:28:39.179Z,12.60
2018-12-06T13:31:08.226Z,12.58
2018-12-06T13:33:37.422Z,11.15
2018-12-06T13:36:08.918Z,9.18
2018-12-06T13:38:37.977Z,9.33
2018-12-06T13:41:06.973Z,7.10
2018-12-06T13:43:36.096Z,9.08
2018-12-06T13:46:05.207Z,11.95
2018-12-06T13:48:34.230Z,41.77
2018-12-06T13:51:03.322Z,22.02
2018-12-06T13:53:32.420Z,10.43
2018-12-06T13:56:01.496Z,18.23
2018-12-06T13:58:30.579Z,11.05
2018-12-06T14:00:59.888Z,17.15
2018-12-06T14:03:29.366Z,13.88
2018-12-06T14:05:58.434Z,12.85
2018-12-06T14:08:27.505Z,13.30
2018-12-06T14:10:56.515Z,12.63
2018-12-06T14:13:26.751Z,19.27
2018-12-06T14:15:55.796Z,15.80
2018-12-06T14:18:24.817Z,12.82
2018-12-06T14:20:54.534Z,15.13
2018-12-06T14:23:23.610Z,12.45
2018-12-06T14:25:53.049Z,11.88
2018-12-06T14:28:22.170Z,11.28
2018-12-06T14:30:51.226Z,11.80
2018-12-06T14:33:20.302Z,16.50
2018-12-06T14:35:49.297Z,8.80
2018-12-06T14:38:18.334Z,10.65
2018-12-06T14:40:48.300Z,19.57
2018-12-06T14:43:17.711Z,12.90
2018-12-06T14:45:46.955Z,13.15
2018-12-06T14:48:16.239Z,16.75
2018-12-06T14:50:45.375Z,15.60
2018-12-06T14:53:14.529Z,21.35
2018-12-06T14:55:43.569Z,13.08
2018-12-06T14:58:12.591Z,12.35
2018-12-06T15:00:41.581Z,16.65
2018-12-06T15:03:10.581Z,15.10
2018-12-06T15:05:39.744Z,12.25
2018-12-06T15:08:09.007Z,11.33
2018-12-06T15:10:38.174Z,16.32
2018-12-06T15:13:07.325Z,15.05
2018-12-06T15:15:36.350Z,15.80
2018-12-06T15:18:05.392Z,14.20
2018-12-06T15:20:34.436Z,15.03
2018-12-06T15:23:03.429Z,12.90
2018-12-06T15:25:32.425Z,15.85
2018-12-06T15:28:01.601Z,14.65
2018-12-06T15:30:30.585Z,16.55
2018-12-06T15:33:00.229Z,17.55
2018-12-06T15:35:29.323Z,14.63
2018-12-06T15:37:58.317Z,16.65
2018-12-06T15:40:27.275Z,16.15
2018-12-06T15:42:56.304Z,18.17
2018-12-06T15:45:25.244Z,13.78
2018-12-06T15:47:54.268Z,15.13
2018-12-06T15:50:23.343Z,26.33
2018-12-06T15:53:21.442Z,30.08
2018-12-06T15:55:50.437Z,20.27
2018-12-06T15:58:19.434Z,24.98
2018-12-06T16:00:48.360Z,25.15
2018-12-06T16:03:17.333Z,21.02
2018-12-06T16:05:46.284Z,21.93
2018-12-06T16:08:16.012Z,20.15
2018-12-06T16:10:45.171Z,20.27
2018-12-06T16:13:14.093Z,15.53
2018-12-06T16:15:43.054Z,14.47
2018-12-06T16:18:12.085Z,17.23
2018-12-06T16:20:41.188Z,16.07
2018-12-06T16:23:10.154Z,18.85
2018-12-06T16:25:39.169Z,15.98
2018-12-06T16:28:08.434Z,19.45
2018-12-06T16:30:37.404Z,23.73
2018-12-06T16:33:06.493Z,30.90
2018-12-06T16:35:35.481Z,26.57
2018-12-06T16:38:04.509Z,23.38
2018-12-06T16:40:33.584Z,20.10
2018-12-06T16:43:02.542Z,18.30
2018-12-06T16:45:31.483Z,25.77
2018-12-06T16:48:01.042Z,18.90
2018-12-06T16:50:30.073Z,21.07
2018-12-06T16:52:59.027Z,18.07
2018-12-06T16:55:28.168Z,19.98
2018-12-06T16:57:57.167Z,25.27
2018-12-06T17:00:26.158Z,21.15
2018-12-06T17:02:55.922Z,20.90
2018-12-06T17:05:25.085Z,20.05
2018-12-06T17:07:54.026Z,22.25
2018-12-06T17:10:23.422Z,25.23
2018-12-06T17:12:52.357Z,20.80
2018-12-06T17:15:21.294Z,19.05
2018-12-06T17:17:50.259Z,25.88
2018-12-06T17:20:19.218Z,27.07
2018-12-06T17:22:48.462Z,25.52
2018-12-06T17:25:17.494Z,26.73
2018-12-06T17:27:46.538Z,26.10
2018-12-06T17:30:15.723Z,23.42
2018-12-06T17:32:45.009Z,28.90
2018-12-06T17:35:14.026Z,24.65
2018-12-06T17:37:42.998Z,23.73
2018-12-06T17:40:12.017Z,24.20
2018-12-06T17:42:40.947Z,22.75
2018-12-06T17:45:10.025Z,22.07
2018-12-06T17:47:39.860Z,24.00
2018-12-06T17:50:09.042Z,28.47
2018-12-06T17:52:38.043Z,30.82
2018-12-06T17:55:09.085Z,23.95
2018-12-06T17:57:38.107Z,22.40
2018-12-06T18:00:09.464Z,19.92
2018-12-06T18:02:38.716Z,21.40
2018-12-06T18:05:07.959Z,29.20
2018-12-06T18:07:37.129Z,24.02
2018-12-06T18:10:07.674Z,26.85
2018-12-06T18:12:36.770Z,25.80
2018-12-06T18:15:06.798Z,25.97
2018-12-06T18:17:35.854Z,19.02
2018-12-06T18:20:06.626Z,18.67
2018-12-06T18:22:35.682Z,24.72
2018-12-06T18:25:05.395Z,21.75
2018-12-06T18:27:34.542Z,20.55
2018-12-06T18:30:04.510Z,21.20
2018-12-06T18:32:34.688Z,17.23
2018-12-06T18:35:04.082Z,22.62
2018-12-06T18:37:33.355Z,18.40
2018-12-06T18:40:02.704Z,23.32
2018-12-06T18:42:32.098Z,22.65
2018-12-06T18:45:01.031Z,30.70
2018-12-06T18:47:32.726Z,26.75
2018-12-06T18:50:02.663Z,26.35
2018-12-06T18:52:34.279Z,23.95
2018-12-06T18:55:03.781Z,30.60
2018-12-06T18:57:34.583Z,22.77
2018-12-06T19:00:06.585Z,21.37
2018-12-06T19:02:36.383Z,22.40
2018-12-06T19:05:06.026Z,25.37
2018-12-06T19:07:35.534Z,24.12
2018-12-06T19:10:05.555Z,27.35
2018-12-06T19:12:38.434Z,30.40
2018-12-06T19:15:08.586Z,30.05
2018-12-06T19:17:38.017Z,26.97
2018-12-06T19:20:07.939Z,25.45
2018-12-06T19:22:37.605Z,25.35
2018-12-06T19:25:06.909Z,35.03
2018-12-06T19:27:35.880Z,36.50
2018-12-06T19:30:05.898Z,38.78
2018-12-06T19:32:34.797Z,35.23
2018-12-06T19:35:03.827Z,38.40
2018-12-06T19:37:32.934Z,34.20
2018-12-06T19:40:01.903Z,33.13
2018-12-06T19:42:38.463Z,37.73
2018-12-06T19:45:02.147Z,32.67
2018-12-06T19:47:31.154Z,40.73
2018-12-06T19:50:00.439Z,45.03
2018-12-06T19:52:29.571Z,32.85
2018-12-06T19:54:58.503Z,33.73
2018-12-06T19:57:27.566Z,38.00
2018-12-06T19:59:56.555Z,28.70
2018-12-06T20:02:25.489Z,31.10
2018-12-06T20:04:54.430Z,29.45
2018-12-06T20:07:23.423Z,25.43
2018-12-06T20:09:52.573Z,23.42
2018-12-06T20:12:21.551Z,32.88
2018-12-06T20:14:50.924Z,25.00
2018-12-06T20:17:19.877Z,24.85
2018-12-06T20:19:49.281Z,28.60
2018-12-06T20:22:19.193Z,24.12
2018-12-06T20:25:03.881Z,23.47
2018-12-06T20:27:32.999Z,19.05
2018-12-06T20:30:03.649Z,30.35
2018-12-06T20:32:33.248Z,22.98
2018-12-06T20:35:02.344Z,21.00
2018-12-06T20:37:31.468Z,24.05
2018-12-06T20:40:01.036Z,26.42
2018-12-06T20:42:30.915Z,20.23
2018-12-06T20:45:00.150Z,22.20
2018-12-06T20:47:29.342Z,26.50
2018-12-06T20:49:58.448Z,27.93
2018-12-06T20:52:28.692Z,30.30
2018-12-06T20:54:58.867Z,37.58
2018-12-06T20:57:27.915Z,32.67
2018-12-06T20:59:57.961Z,39.25
2018-12-06T21:02:27.050Z,33.67
2018-12-06T21:04:56.253Z,33.08
2018-12-06T21:07:25.379Z,31.07
2018-12-06T21:09:54.482Z,33.88
2018-12-06T21:12:23.621Z,32.15
2018-12-06T21:14:52.775Z,36.50
2018-12-06T21:17:21.987Z,32.50
2018-12-06T21:19:51.050Z,36.48
2018-12-06T21:22:20.668Z,31.62
2018-12-06T21:24:51.144Z,31.05
2018-12-06T21:27:20.213Z,30.77
2018-12-06T21:29:49.222Z,30.40
2018-12-06T21:32:21.964Z,32.98
2018-12-06T21:34:50.971Z,28.30
2018-12-06T21:37:20.117Z,31.60
2018-12-06T21:39:49.187Z,30.15
2018-12-06T21:42:18.340Z,30.90
2018-12-06T21:44:47.365Z,31.97
2018-12-06T21:47:21.540Z,29.02
2018-12-06T21:49:50.597Z,25.77
2018-12-06T21:52:19.586Z,28.17
2018-12-06T21:54:48.645Z,24.40
2018-12-06T21:57:17.674Z,26.02
2018-12-06T21:59:46.614Z,26.50
2018-12-06T22:02:24.997Z,28.20
2018-12-06T22:04:53.902Z,32.60
2018-12-06T22:07:22.849Z,29.45
2018-12-06T22:09:51.838Z,25.35
2018-12-06T22:12:20.746Z,25.17
2018-12-06T22:14:49.686Z,26.77
2018-12-06T22:17:18.658Z,28.55
2018-12-06T22:19:47.590Z,26.70
2018-12-06T22:22:16.535Z,26.60
2018-12-06T22:24:45.543Z,25.02
2018-12-06T22:27:14.449Z,28.27
2018-12-06T22:29:44.442Z,29.23
2018-12-06T22:32:13.436Z,22.30
2018-12-06T22:34:42.346Z,25.00
2018-12-06T22:37:11.309Z,27.80
2018-12-06T22:39:40.248Z,24.75
2018-12-06T22:42:09.307Z,22.00
2018-12-06T22:44:38.266Z,28.87
2018-12-06T22:47:07.422Z,23.45
2018-12-06T22:49:36.314Z,21.85
2018-12-06T22:52:05.242Z,25.60
2018-12-06T22:54:34.265Z,18.35
2018-12-06T22:57:03.469Z,20.50
2018-12-06T22:59:32.400Z,19.50
2018-12-06T23:02:01.375Z,24.67
2018-12-06T23:04:30.315Z,20.80
2018-12-06T23:06:59.229Z,19.62
2018-12-06T23:09:28.191Z,20.60
2018-12-06T23:11:57.127Z,17.73
2018-12-06T23:14:26.112Z,21.35
2018-12-06T23:16:55.352Z,20.72
2018-12-06T23:19:24.233Z,23.60
2018-12-06T23:21:53.304Z,24.05
2018-12-06T23:24:22.265Z,20.70
2018-12-06T23:26:51.126Z,21.25
2018-12-06T23:29:20.046Z,27.05
2018-12-06T23:31:48.981Z,22.98
2018-12-06T23:34:17.874Z,21.70
2018-12-06T23:36:47.973Z,21.80
2018-12-06T23:39:16.943Z,21.02
2018-12-06T23:41:45.860Z,20.43
2018-12-06T23:44:15.642Z,20.65
2018-12-06T23:46:44.656Z,21.55
2018-12-06T23:49:13.738Z,16.90
2018-12-06T23:51:42.749Z,23.52
2018-12-06T23:54:11.761Z,19.37
2018-12-06T23:56:40.795Z,21.95
2018-12-06T23:59:09.714Z,19.50
